Time;durP1;ratioP1;P1;durP2;ratioP2;P2;SDS_P1;SDS_P2;PMS_P1;PMS_P2;Temp;Humidity;BMP_temperature;BMP_pressure;BME280_temperature;BME280_humidity;BME280_pressure;Samples;Min_cycle;Max_cycle;Signal;HPM_P1;HPM_P2
2023/02/18 00:01:40;;;;;;;;;;;;;;;-1.56;82.52;94138.81;5023368;28;19960;-46
2023/02/18 00:04:06;;;;;;;;;;;;;;;-1.64;82.74;94134.16;5023620;28;19921;-47
2023/02/18 00:06:32;;;;;;;;;;;;;;;-1.54;82.65;94136.38;5017605;28;19917;-47
2023/02/18 00:09:00;;;;;;;;;;;;;;;-1.82;83.08;94143.03;5024431;28;19968;-47
2023/02/18 00:11:26;;;;;;;;;;;;;;;-1.97;84.29;94136.72;5011984;28;19929;-47
2023/02/18 00:13:56;;;;;;;;;;;;;;;-2.04;84.84;94128.94;5022216;28;20306;-47
2023/02/18 00:16:22;;;;;;;;;;;;;;;-2.09;84.72;94123.38;5017795;28;20417;-47
2023/02/18 00:18:48;;;;;;;;;;;;;;;-2.11;85.05;94123.06;5024964;28;19917;-48
2023/02/18 00:21:13;;;;;;;;;;;;;;;-2.12;85.27;94116.16;5025325;28;19948;-48
2023/02/18 00:23:38;;;;;;;;;;;;;;;-2.23;85.41;94119.28;5027519;28;19924;-48
2023/02/18 00:26:14;;;;;;;;;;;;;;;-2.29;86.27;94104.88;5021483;28;20650;-48
2023/02/18 00:28:39;;;;;;;;;;;;;;;-2.19;86.15;94111.06;5018957;28;20543;-48
2023/02/18 00:31:13;;;;;;;;;;;;;;;-2.19;85.90;94108.34;5027090;28;19917;-47
2023/02/18 00:33:38;;;;;;;;;;;;;;;-2.08;84.74;94097.81;5019168;28;19917;-47
2023/02/18 00:36:05;;;;;;;;;;;;;;;-2.23;85.34;94094.22;5018798;28;19949;-46
2023/02/18 00:38:30;;;;;;;;;;;;;;;-2.20;85.56;94090.59;5022676;28;19917;-46
2023/02/18 00:40:56;;;;;;;;;;;;;;;-2.31;85.50;94091.81;5015910;28;20298;-47
2023/02/18 00:43:21;;;;;;;;;;;;;;;-2.36;85.85;94091.69;5013423;28;20487;-47
2023/02/18 00:45:46;;;;;;;;;;;;;;;-2.49;86.67;94101.88;5029052;28;19923;-47
2023/02/18 00:48:11;;;;;;;;;;;;;;;-2.60;86.95;94094.19;5024915;28;19921;-47
2023/02/18 00:50:37;;;;;;;;;;;;;;;-2.52;86.59;94091.94;5021105;28;19917;-48
2023/02/18 00:53:02;;;;;;;;;;;;;;;-2.26;85.70;94095.13;5025574;28;19917;-47
2023/02/18 00:55:27;;;;;;;;;;;;;;;-2.40;86.42;94093.75;5018540;28;19972;-46
2023/02/18 00:57:53;;;;;;;;;;;;;;;-2.30;87.12;94095.28;5019265;28;19952;-46
2023/02/18 01:00:18;;;;;;;;;;;;;;;-2.33;87.17;94094.22;5022017;28;20484;-46
2023/02/18 01:02:43;;;;;;;;;;;;;;;-2.07;86.63;94099.31;5026259;28;19921;-47
2023/02/18 01:05:09;;;;;;;;;;;;;;;-1.95;86.08;94090.31;5026703;28;19916;-47
2023/02/18 01:07:34;;;;;;;;;;;;;;;-1.85;85.75;94083.66;5010926;28;19921;-46
2023/02/18 01:09:59;;;;;;;;;;;;;;;-1.70;85.89;94079.88;5021836;28;20390;-47
2023/02/18 01:12:25;;;;;;;;;;;;;;;-1.89;85.95;94081.13;5019529;28;19963;-46
2023/02/18 01:14:50;;;;;;;;;;;;;;;-1.99;86.16;94079.63;5017420;28;20399;-46
2023/02/18 01:17:15;;;;;;;;;;;;;;;-2.06;87.65;94079.19;5017447;28;20432;-47
2023/02/18 01:19:40;;;;;;;;;;;;;;;-1.99;87.79;94074.22;5022101;28;19932;-47
2023/02/18 01:22:06;;;;;;;;;;;;;;;-1.91;86.55;94075.41;5018762;28;19975;-48
2023/02/18 01:24:31;;;;;;;;;;;;;;;-1.98;87.12;94062.19;5019879;28;19952;-47
2023/02/18 01:26:56;;;;;;;;;;;;;;;-1.93;86.93;94061.59;5016783;28;20382;-47
2023/02/18 01:29:22;;;;;;;;;;;;;;;-2.22;85.81;94069.44;5016391;28;19949;-47
2023/02/18 01:31:47;;;;;;;;;;;;;;;-2.16;85.45;94056.78;5022873;28;19925;-47
2023/02/18 01:34:12;;;;;;;;;;;;;;;-2.03;85.33;94051.97;5017695;28;19921;-47
2023/02/18 01:36:37;;;;;;;;;;;;;;;-2.26;86.19;94066.13;5020202;28;19917;-47
2023/02/18 01:39:04;;;;;;;;;;;;;;;-2.46;87.63;94061.16;5023554;28;19917;-46
2023/02/18 01:41:29;;;;;;;;;;;;;;;-2.41;87.20;94059.81;5013759;28;19921;-48
2023/02/18 01:44:14;;;;;;;;;;;;;;;-2.33;87.56;94061.00;5013513;28;19998;-47
2023/02/18 01:46:39;;;;;;;;;;;;;;;-2.18;87.10;94061.91;5016867;28;19921;-46
2023/02/18 01:49:04;;;;;;;;;;;;;;;-2.28;86.82;94054.25;5015280;28;19921;-46
2023/02/18 01:51:43;;;;;;;;;;;;;;;-2.36;86.75;94061.94;5019455;28;19917;-46
2023/02/18 01:54:13;;;;;;;;;;;;;;;-2.50;87.58;94062.50;5021229;28;19957;-47
2023/02/18 01:56:38;;;;;;;;;;;;;;;-2.57;87.36;94068.22;5024052;28;19927;-46
2023/02/18 01:59:05;;;;;;;;;;;;;;;-2.70;88.05;94073.00;5013185;28;19925;-47
2023/02/18 02:01:30;;;;;;;;;;;;;;;-2.40;86.82;94064.75;5017111;28;19972;-46
2023/02/18 02:03:55;;;;;;;;;;;;;;;-2.33;86.27;94061.78;5019688;28;19925;-48
2023/02/18 02:06:21;;;;;;;;;;;;;;;-2.24;86.52;94052.16;5018037;28;19923;-47
2023/02/18 02:08:46;;;;;;;;;;;;;;;-2.39;87.28;94062.81;5017866;28;20579;-47
2023/02/18 02:11:15;;;;;;;;;;;;;;;-2.53;87.24;94060.69;5016208;28;20017;-47
2023/02/18 02:13:40;;;;;;;;;;;;;;;-2.63;87.26;94053.78;5016388;28;19917;-46
2023/02/18 02:16:10;;;;;;;;;;;;;;;-2.58;87.61;94051.25;5012678;28;19924;-47
2023/02/18 02:18:39;;;;;;;;;;;;;;;-2.47;88.09;94056.22;5016694;28;19920;-46
2023/02/18 02:21:30;;;;;;;;;;;;;;;-2.41;87.26;94057.88;5016501;28;20016;-46
2023/02/18 02:24:14;;;;;;;;;;;;;;;-2.32;87.41;94059.81;5023630;28;19928;-47
2023/02/18 02:26:48;;;;;;;;;;;;;;;-2.31;86.47;94062.06;5017247;28;19928;-47
2023/02/18 02:29:51;;;;;;;;;;;;;;;-2.34;86.10;94062.97;5017974;28;19979;-46
2023/02/18 02:32:32;;;;;;;;;;;;;;;-2.29;86.69;94053.50;4959811;28;19924;-46
2023/02/18 02:34:58;;;;;;;;;;;;;;;-2.34;87.56;94059.53;4960911;28;19973;-46
2023/02/18 02:37:29;;;;;;;;;;;;;;;-2.39;88.01;94055.47;4988528;28;19976;-45
2023/02/18 02:40:06;;;;;;;;;;;;;;;-2.53;88.41;94052.59;5014959;28;20507;-47
2023/02/18 02:42:37;;;;;;;;;;;;;;;-2.50;88.37;94057.88;5024187;28;20472;-46
2023/02/18 02:45:04;;;;;;;;;;;;;;;-2.47;88.07;94062.34;5016010;28;19921;-46
2023/02/18 02:47:32;;;;;;;;;;;;;;;-2.60;88.19;94058.31;5017596;28;19925;-46
2023/02/18 02:50:14;;;;;;;;;;;;;;;-2.65;88.70;94065.06;5024222;28;19925;-46
2023/02/18 02:52:40;;;;;;;;;;;;;;;-2.65;88.95;94061.59;5022833;28;19925;-46
2023/02/18 02:55:10;;;;;;;;;;;;;;;-2.62;89.00;94069.56;5024248;28;19924;-46
2023/02/18 02:57:35;;;;;;;;;;;;;;;-2.38;88.26;94077.81;5023770;28;20326;-46
2023/02/18 03:00:01;;;;;;;;;;;;;;;-2.57;87.41;94070.91;5023764;28;19925;-47
2023/02/18 03:02:41;;;;;;;;;;;;;;;-2.66;88.05;94084.41;5019932;28;20684;-46
2023/02/18 03:05:06;;;;;;;;;;;;;;;-2.71;89.05;94077.66;5018550;28;20484;-47
2023/02/18 03:07:47;;;;;;;;;;;;;;;-2.62;88.91;94074.22;5013386;28;19917;-47
2023/02/18 03:10:15;;;;;;;;;;;;;;;-2.68;89.49;94071.34;5015373;28;20004;-47
2023/02/18 03:12:59;;;;;;;;;;;;;;;-2.63;89.10;94073.47;5017579;28;19967;-46
2023/02/18 03:15:33;;;;;;;;;;;;;;;-2.43;88.73;94078.44;5019683;28;19922;-47
2023/02/18 03:18:08;;;;;;;;;;;;;;;-2.57;89.30;94077.06;5017773;28;19917;-47
2023/02/18 03:20:34;;;;;;;;;;;;;;;-2.54;88.97;94084.28;5012544;28;20047;-47
2023/02/18 03:23:00;;;;;;;;;;;;;;;-2.57;89.36;94089.84;5020998;28;19949;-46
2023/02/18 03:25:25;;;;;;;;;;;;;;;-2.54;89.28;94091.66;5016792;28;20057;-46
2023/02/18 03:27:52;;;;;;;;;;;;;;;-2.50;88.67;94086.84;5020241;28;20008;-46
2023/02/18 03:30:29;;;;;;;;;;;;;;;-2.52;88.31;94091.94;5017521;28;19918;-47
2023/02/18 03:32:55;;;;;;;;;;;;;;;-2.62;87.83;94104.69;5018772;28;20123;-46
2023/02/18 03:35:21;;;;;;;;;;;;;;;-2.48;87.50;94098.72;5016667;28;19935;-47
2023/02/18 03:37:47;;;;;;;;;;;;;;;-2.44;88.15;94102.03;5018347;28;20257;-45
2023/02/18 03:40:12;;;;;;;;;;;;;;;-2.45;87.86;94094.38;5016379;28;20416;-46
2023/02/18 03:42:37;;;;;;;;;;;;;;;-2.39;87.36;94100.69;5025207;28;19923;-47
2023/02/18 03:45:03;;;;;;;;;;;;;;;-2.43;88.31;94102.78;5023379;28;20317;-46
2023/02/18 03:47:28;;;;;;;;;;;;;;;-2.42;88.35;94096.16;5023886;28;19917;-47
2023/02/18 03:49:53;;;;;;;;;;;;;;;-2.45;88.14;94097.06;5015244;28;19971;-46
2023/02/18 03:52:19;;;;;;;;;;;;;;;-2.63;88.21;94100.50;5014293;28;20420;-47
2023/02/18 03:54:44;;;;;;;;;;;;;;;-2.67;88.80;94104.53;5016053;28;19965;-47
2023/02/18 03:57:09;;;;;;;;;;;;;;;-2.55;86.84;94099.00;5017564;28;19921;-45
2023/02/18 03:59:34;;;;;;;;;;;;;;;-2.62;87.73;94098.56;5014723;28;19965;-46
2023/02/18 04:02:00;;;;;;;;;;;;;;;-2.57;87.93;94097.94;5021513;28;20593;-46
2023/02/18 04:04:25;;;;;;;;;;;;;;;-2.71;88.31;94090.44;5015227;28;20035;-46
2023/02/18 04:06:50;;;;;;;;;;;;;;;-2.96;88.95;94099.50;5017283;28;19921;-47
2023/02/18 04:09:15;;;;;;;;;;;;;;;-2.72;89.10;94089.66;5009974;28;20087;-47
2023/02/18 04:11:41;;;;;;;;;;;;;;;-2.77;88.46;94094.94;5010803;28;19917;-47
2023/02/18 04:14:07;;;;;;;;;;;;;;;-2.69;88.78;94090.72;5018539;28;20635;-46
2023/02/18 04:16:32;;;;;;;;;;;;;;;-2.51;88.13;94074.50;5016571;28;19921;-46
2023/02/18 04:18:57;;;;;;;;;;;;;;;-2.35;87.44;94082.34;5015547;28;19917;-47
2023/02/18 04:21:22;;;;;;;;;;;;;;;-2.69;88.27;94083.38;5016557;28;19925;-47
2023/02/18 04:23:48;;;;;;;;;;;;;;;-2.75;89.05;94089.81;5025580;28;19924;-47
2023/02/18 04:26:13;;;;;;;;;;;;;;;-2.80;88.35;94082.28;5018004;28;19983;-48
2023/02/18 04:28:38;;;;;;;;;;;;;;;-2.72;89.08;94078.84;5023065;28;19924;-47
2023/02/18 04:31:03;;;;;;;;;;;;;;;-2.82;89.71;94077.34;5021758;28;20011;-46
2023/02/18 04:33:29;;;;;;;;;;;;;;;-2.81;89.26;94088.88;5013194;28;19924;-47
2023/02/18 04:35:54;;;;;;;;;;;;;;;-2.76;89.52;94078.25;5023929;28;19969;-48
2023/02/18 04:38:19;;;;;;;;;;;;;;;-2.71;89.39;94087.72;5016187;28;19928;-47
2023/02/18 04:40:44;;;;;;;;;;;;;;;-2.85;89.89;94082.88;5019758;28;20304;-47
2023/02/18 04:43:10;;;;;;;;;;;;;;;-2.73;90.49;94092.81;5028614;28;19917;-48
2023/02/18 04:45:35;;;;;;;;;;;;;;;-2.81;90.65;94097.75;5019022;28;19921;-47
2023/02/18 04:48:00;;;;;;;;;;;;;;;-2.76;90.82;94080.97;5022274;28;19917;-46
2023/02/18 04:50:26;;;;;;;;;;;;;;;-2.63;90.45;94103.19;5026207;28;19982;-46
2023/02/18 04:52:51;;;;;;;;;;;;;;;-2.69;90.39;94088.78;5021187;28;20412;-47
2023/02/18 04:55:16;;;;;;;;;;;;;;;-2.67;89.94;94108.00;5025475;28;20039;-46
2023/02/18 04:57:41;;;;;;;;;;;;;;;-2.54;89.78;94100.53;5015792;28;20287;-47
2023/02/18 05:00:08;;;;;;;;;;;;;;;-2.56;89.72;94094.06;5013154;28;19921;-46
2023/02/18 05:02:33;;;;;;;;;;;;;;;-2.57;89.43;94085.19;5022681;28;19921;-47
2023/02/18 05:04:58;;;;;;;;;;;;;;;-2.61;89.98;94094.63;5021884;28;20507;-47
2023/02/18 05:07:23;;;;;;;;;;;;;;;-2.62;90.06;94087.75;5016794;28;19968;-47
2023/02/18 05:09:49;;;;;;;;;;;;;;;-2.49;89.80;94082.94;5015930;28;19928;-47
2023/02/18 05:12:14;;;;;;;;;;;;;;;-2.48;88.66;94090.59;5020211;28;19963;-48
2023/02/18 05:14:39;;;;;;;;;;;;;;;-2.51;88.48;94088.78;5019513;28;19929;-47
2023/02/18 05:17:05;;;;;;;;;;;;;;;-2.36;88.37;94084.28;5015781;28;19937;-47
2023/02/18 05:19:30;;;;;;;;;;;;;;;-2.36;88.50;94091.69;5015204;28;19928;-46
2023/02/18 05:21:55;;;;;;;;;;;;;;;-2.26;88.43;94087.00;5025227;28;19917;-47
2023/02/18 05:24:20;;;;;;;;;;;;;;;-2.12;88.55;94076.31;5026710;28;19952;-46
2023/02/18 05:26:46;;;;;;;;;;;;;;;-2.31;88.68;94083.69;5011675;28;20012;-47
2023/02/18 05:29:11;;;;;;;;;;;;;;;-2.43;88.50;94086.56;5022973;28;19974;-47
2023/02/18 05:31:37;;;;;;;;;;;;;;;-2.25;88.01;94093.94;5025091;28;20436;-46
2023/02/18 05:34:02;;;;;;;;;;;;;;;-2.38;87.90;94083.22;5024025;28;19925;-46
2023/02/18 05:36:27;;;;;;;;;;;;;;;-2.39;88.57;94089.84;5015670;28;20432;-47
2023/02/18 05:38:53;;;;;;;;;;;;;;;-2.32;88.93;94095.72;5028085;28;19917;-47
2023/02/18 05:41:18;;;;;;;;;;;;;;;-2.34;89.49;94086.56;5026230;28;19921;-47
2023/02/18 05:46:27;;;;;;;;;;;;;;;-2.26;90.43;94087.00;5024061;28;19968;-46
2023/02/18 05:48:53;;;;;;;;;;;;;;;-2.11;90.91;94087.91;5021083;28;19921;-47
2023/02/18 05:51:18;;;;;;;;;;;;;;;-2.09;89.96;94090.91;5018429;28;20004;-47
2023/02/18 05:53:43;;;;;;;;;;;;;;;-1.95;89.50;94095.72;5016315;28;19936;-46
2023/02/18 05:56:08;;;;;;;;;;;;;;;-2.05;88.81;94103.06;5017290;28;19960;-47
2023/02/18 05:58:34;;;;;;;;;;;;;;;-2.01;89.04;94084.72;5018333;28;19983;-47
2023/02/18 06:00:59;;;;;;;;;;;;;;;-1.85;88.57;94080.97;5014475;28;20000;-47
2023/02/18 06:03:24;;;;;;;;;;;;;;;-1.80;88.76;94083.78;5019405;28;19955;-47
2023/02/18 06:05:50;;;;;;;;;;;;;;;-1.72;88.62;94081.53;5017077;28;19924;-47
2023/02/18 06:08:15;;;;;;;;;;;;;;;-1.77;89.08;94080.19;5016810;28;19921;-46
2023/02/18 06:10:40;;;;;;;;;;;;;;;-1.69;89.44;94081.38;5016851;28;19917;-49
2023/02/18 06:13:05;;;;;;;;;;;;;;;-1.60;89.38;94070.53;5023738;28;19921;-47
2023/02/18 06:15:31;;;;;;;;;;;;;;;-1.55;88.59;94064.50;5013208;28;19960;-49
2023/02/18 06:17:56;;;;;;;;;;;;;;;-1.36;88.99;94089.56;5021606;28;19991;-47
2023/02/18 06:20:21;;;;;;;;;;;;;;;-1.28;88.64;94096.19;5017996;28;19932;-47
2023/02/18 06:22:46;;;;;;;;;;;;;;;-1.17;88.15;94095.69;5018394;28;20004;-46
2023/02/18 06:25:12;;;;;;;;;;;;;;;-0.89;87.34;94089.66;5018181;28;20561;-46
2023/02/18 06:27:37;;;;;;;;;;;;;;;-0.92;87.00;94100.69;5023475;28;19925;-45
2023/02/18 06:30:03;;;;;;;;;;;;;;;-0.67;87.32;94100.25;5016535;28;19924;-46
2023/02/18 06:32:28;;;;;;;;;;;;;;;-0.38;86.03;94089.53;5016058;28;19968;-46
2023/02/18 06:34:54;;;;;;;;;;;;;;;-0.13;83.83;94086.31;5011601;28;20405;-47
2023/02/18 06:37:19;;;;;;;;;;;;;;;-0.06;84.10;94080.53;5018289;28;19974;-46
2023/02/18 06:39:44;;;;;;;;;;;;;;;0.19;84.54;94076.56;5011202;28;19944;-47
2023/02/18 06:42:11;;;;;;;;;;;;;;;0.24;83.23;94091.44;5021231;28;19986;-48
2023/02/18 06:44:36;;;;;;;;;;;;;;;0.24;82.25;94096.88;5017245;28;19971;-47
2023/02/18 06:47:01;;;;;;;;;;;;;;;0.28;81.48;94081.16;5023529;28;19952;-46
2023/02/18 06:49:26;;;;;;;;;;;;;;;0.78;80.53;94082.72;5019506;28;20376;-47
2023/02/18 06:51:52;;;;;;;;;;;;;;;0.53;81.35;94092.22;5021002;28;19917;-47
2023/02/18 06:54:17;;;;;;;;;;;;;;;0.61;82.67;94081.72;5022753;28;19917;-46
2023/02/18 06:56:42;;;;;;;;;;;;;;;0.90;82.30;94087.13;5019312;28;19921;-47
2023/02/18 06:59:08;;;;;;;;;;;;;;;1.29;81.32;94085.75;5016449;28;20382;-47
2023/02/18 07:01:33;;;;;;;;;;;;;;;1.20;80.99;94090.53;5015844;28;20492;-47
2023/02/18 07:03:58;;;;;;;;;;;;;;;1.71;79.61;94085.28;5014864;28;20306;-47
2023/02/18 07:06:24;;;;;;;;;;;;;;;2.17;78.26;94088.06;5015373;28;19979;-46
2023/02/18 07:08:49;;;;;;;;;;;;;;;2.19;76.91;94097.25;5020984;28;19990;-49
2023/02/18 07:11:14;;;;;;;;;;;;;;;2.34;76.15;94093.69;5015526;28;19921;-47
2023/02/18 07:13:39;;;;;;;;;;;;;;;2.52;76.80;94094.13;5015843;28;19975;-47
2023/02/18 07:16:05;;;;;;;;;;;;;;;3.02;75.29;94091.84;5019599;28;20345;-48
2023/02/18 07:18:30;;;;;;;;;;;;;;;2.59;74.49;94082.78;5015703;28;20073;-47
2023/02/18 07:20:55;;;;;;;;;;;;;;;2.64;75.14;94086.81;5016489;28;20658;-47
2023/02/18 07:23:21;;;;;;;;;;;;;;;2.79;74.66;94093.66;5021021;28;19928;-47
2023/02/18 07:25:46;;;;;;;;;;;;;;;2.86;74.09;94093.19;5016390;28;19921;-45
2023/02/18 07:28:11;;;;;;;;;;;;;;;3.32;71.67;94090.31;5014449;28;19921;-47
2023/02/18 07:30:37;;;;;;;;;;;;;;;3.48;71.22;94078.75;5018511;28;20420;-47
2023/02/18 07:33:02;;;;;;;;;;;;;;;3.62;71.21;94082.53;5014448;28;19928;-44
2023/02/18 07:35:27;;;;;;;;;;;;;;;3.87;70.76;94084.44;5018225;28;19948;-48
2023/02/18 07:37:53;;;;;;;;;;;;;;;4.00;69.34;94076.53;5015005;28;20847;-46
2023/02/18 07:40:19;;;;;;;;;;;;;;;3.82;69.24;94079.69;5012510;28;20020;-46
2023/02/18 07:42:44;;;;;;;;;;;;;;;4.12;67.83;94074.56;5013828;28;19925;-45
2023/02/18 07:45:10;;;;;;;;;;;;;;;4.09;68.66;94081.03;5008298;28;20008;-46
2023/02/18 07:47:35;;;;;;;;;;;;;;;4.86;67.35;94077.72;5016042;28;19992;-46
2023/02/18 07:50:01;;;;;;;;;;;;;;;5.32;64.54;94073.25;5020047;28;21266;-47
2023/02/18 07:52:28;;;;;;;;;;;;;;;6.21;62.94;94069.53;5007703;28;19975;-46
2023/02/18 07:54:53;;;;;;;;;;;;;;;6.93;60.13;94080.09;5018593;28;19958;-46
2023/02/18 07:57:18;;;;;;;;;;;;;;;7.80;56.23;94074.34;5012237;28;20635;-46
2023/02/18 07:59:44;;;;;;;;;;;;;;;8.10;56.51;94066.78;5017625;28;19936;-47
2023/02/18 08:02:14;;;;;;;;;;;;;;;8.70;54.78;94067.28;5013259;28;20026;-46
2023/02/18 08:04:39;;;;;;;;;;;;;;;8.99;54.52;94071.88;5019285;28;19925;-46
2023/02/18 08:07:05;;;;;;;;;;;;;;;8.98;52.68;94060.13;5016420;28;20332;-47
2023/02/18 08:09:30;;;;;;;;;;;;;;;10.98;50.94;94053.63;5015710;28;19968;-47
2023/02/18 08:11:56;;;;;;;;;;;;;;;12.96;45.70;94055.19;5017914;28;19970;-48
2023/02/18 08:14:22;;;;;;;;;;;;;;;14.45;42.42;94052.31;5012900;28;19988;-48
2023/02/18 08:16:47;;;;;;;;;;;;;;;14.56;41.44;94053.94;5019747;28;20032;-50
2023/02/18 08:19:12;;;;;;;;;;;;;;;15.46;38.33;94052.84;5020081;28;19921;-47
2023/02/18 08:21:37;;;;;;;;;;;;;;;13.29;40.49;94050.69;5020732;28;20364;-48
2023/02/18 08:24:03;;;;;;;;;;;;;;;14.22;42.00;94043.28;5020625;28;19921;-47
2023/02/18 08:26:29;;;;;;;;;;;;;;;16.20;38.18;94050.75;5022068;28;19922;-49
2023/02/18 08:28:54;;;;;;;;;;;;;;;16.73;36.56;94050.25;5021202;28;19932;-49
2023/02/18 08:31:20;;;;;;;;;;;;;;;15.83;37.28;94054.63;5023116;28;19955;-50
2023/02/18 08:33:46;;;;;;;;;;;;;;;15.67;38.63;94051.19;5020071;28;19929;-47
2023/02/18 08:36:11;;;;;;;;;;;;;;;16.78;36.42;94054.09;5017769;28;19925;-46
2023/02/18 08:38:36;;;;;;;;;;;;;;;16.25;35.76;94049.78;5021666;28;19921;-46
2023/02/18 08:41:02;;;;;;;;;;;;;;;16.07;36.05;94044.75;5022950;28;19924;-47
2023/02/18 08:43:28;;;;;;;;;;;;;;;16.62;36.05;94036.78;5022097;28;19921;-47
2023/02/18 08:45:53;;;;;;;;;;;;;;;16.10;32.13;94040.81;5018834;28;19921;-47
2023/02/18 08:48:18;;;;;;;;;;;;;;;15.70;33.33;94036.13;5019312;28;19928;-48
2023/02/18 08:50:44;;;;;;;;;;;;;;;17.12;30.32;94028.94;5016999;28;19934;-50
2023/02/18 08:53:09;;;;;;;;;;;;;;;17.40;30.13;94033.94;5021134;28;19976;-47
2023/02/18 08:55:36;;;;;;;;;;;;;;;19.19;27.07;94019.44;5022074;28;19921;-48
2023/02/18 08:58:03;;;;;;;;;;;;;;;18.95;29.07;94023.31;5020927;28;19928;-47
2023/02/18 09:00:28;;;;;;;;;;;;;;;20.30;25.47;94019.53;5020694;28;20140;-46
2023/02/18 09:02:53;;;;;;;;;;;;;;;19.79;26.23;94025.06;5021416;28;19967;-47
2023/02/18 09:05:19;;;;;;;;;;;;;;;19.57;26.64;94027.06;5017429;28;20016;-48
2023/02/18 09:07:44;;;;;;;;;;;;;;;18.87;26.26;94029.06;5019709;28;20012;-47
2023/02/18 09:10:09;;;;;;;;;;;;;;;17.90;28.48;94037.88;5014464;28;19991;-47
2023/02/18 09:12:35;;;;;;;;;;;;;;;16.00;30.14;94034.41;5019982;28;20057;-47
2023/02/18 09:15:00;;;;;;;;;;;;;;;16.76;29.50;94034.41;5021262;28;20665;-47
2023/02/18 09:17:26;;;;;;;;;;;;;;;17.31;29.22;94040.22;5018377;28;20385;-48
2023/02/18 09:19:51;;;;;;;;;;;;;;;16.79;29.92;94038.81;5020813;28;20348;-47
2023/02/18 09:22:17;;;;;;;;;;;;;;;17.42;27.95;94039.69;5017233;28;19921;-48
2023/02/18 09:24:42;;;;;;;;;;;;;;;18.34;27.93;94028.56;5016646;28;19952;-47
2023/02/18 09:27:07;;;;;;;;;;;;;;;19.37;26.44;94022.84;5021327;28;20520;-47
2023/02/18 09:29:33;;;;;;;;;;;;;;;19.78;24.94;94021.53;5021087;28;19921;-47
2023/02/18 09:32:01;;;;;;;;;;;;;;;19.83;26.64;94019.75;5016950;28;19967;-46
2023/02/18 09:34:27;;;;;;;;;;;;;;;18.81;27.08;94016.72;5019906;28;20442;-47
2023/02/18 09:36:52;;;;;;;;;;;;;;;19.58;25.48;94015.25;5021201;28;19928;-47
2023/02/18 09:39:18;;;;;;;;;;;;;;;19.11;25.60;94020.94;5021490;28;19932;-48
2023/02/18 09:41:44;;;;;;;;;;;;;;;18.66;26.86;94028.94;5021390;28;20124;-47
2023/02/18 09:44:09;;;;;;;;;;;;;;;17.72;26.63;94022.50;5021345;28;19921;-46
2023/02/18 09:46:39;;;;;;;;;;;;;;;18.08;27.17;94021.75;5022200;28;19921;-47
2023/02/18 09:49:06;;;;;;;;;;;;;;;18.93;26.86;94014.78;5019523;28;19921;-50
2023/02/18 09:51:32;;;;;;;;;;;;;;;19.30;26.03;94021.66;5015492;28;19968;-47
2023/02/18 09:53:57;;;;;;;;;;;;;;;19.91;24.90;94004.22;5019092;28;19960;-48
2023/02/18 09:56:27;;;;;;;;;;;;;;;20.60;25.13;94000.44;5022692;28;19925;-50
2023/02/18 09:58:52;;;;;;;;;;;;;;;19.49;23.39;94002.00;5022446;28;19917;-46
2023/02/18 10:01:23;;;;;;;;;;;;;;;18.07;27.50;94018.22;5019868;28;19932;-47
2023/02/18 10:03:49;;;;;;;;;;;;;;;16.91;28.01;94007.09;5020316;28;19921;-49
2023/02/18 10:06:33;;;;;;;;;;;;;;;17.08;28.25;94011.88;5021338;28;19926;-48
2023/02/18 10:08:59;;;;;;;;;;;;;;;16.01;29.67;94002.44;5020124;28;19957;-48
2023/02/18 10:11:29;;;;;;;;;;;;;;;16.03;28.94;94010.97;5019563;28;19921;-47
2023/02/18 10:13:54;;;;;;;;;;;;;;;15.46;30.83;93995.13;5018943;28;19932;-48
2023/02/18 10:16:20;;;;;;;;;;;;;;;14.86;30.95;93985.09;5021759;28;19921;-46
2023/02/18 10:18:48;;;;;;;;;;;;;;;14.45;32.43;93985.63;5025530;28;19917;-46
2023/02/18 10:21:18;;;;;;;;;;;;;;;14.26;32.77;93986.06;5017635;28;20512;-48
2023/02/18 10:23:50;;;;;;;;;;;;;;;14.02;33.84;93983.88;5014999;28;19971;-47
2023/02/18 10:26:16;;;;;;;;;;;;;;;13.79;33.29;93977.63;5021737;28;19918;-48
2023/02/18 10:28:41;;;;;;;;;;;;;;;14.84;33.51;93979.34;5020059;28;20034;-46
2023/02/18 10:31:09;;;;;;;;;;;;;;;16.02;30.22;93974.06;5014624;28;19949;-48
2023/02/18 10:33:53;;;;;;;;;;;;;;;17.70;27.53;93965.75;5022774;28;19932;-47
2023/02/18 10:36:21;;;;;;;;;;;;;;;18.27;26.33;93957.50;5015980;28;19925;-47
2023/02/18 10:39:12;;;;;;;;;;;;;;;17.73;26.81;93953.44;5021317;28;19932;-47
2023/02/18 10:41:52;;;;;;;;;;;;;;;16.67;27.71;93964.03;4994873;28;19932;-47
2023/02/18 10:44:41;;;;;;;;;;;;;;;16.22;27.61;93958.97;5017714;28;20349;-46
2023/02/18 10:47:06;;;;;;;;;;;;;;;15.95;28.39;93963.72;4996439;28;20252;-49
2023/02/18 10:49:40;;;;;;;;;;;;;;;16.51;28.59;93945.28;5020714;28;19917;-48
2023/02/18 10:52:08;;;;;;;;;;;;;;;16.58;28.85;93953.56;5018175;28;19917;-47
2023/02/18 10:54:52;;;;;;;;;;;;;;;17.01;28.32;93951.34;5018678;28;19921;-49
2023/02/18 10:57:22;;;;;;;;;;;;;;;16.70;26.62;93942.63;5016405;28;19928;-46
2023/02/18 11:00:09;;;;;;;;;;;;;;;17.85;27.04;93937.56;5015458;28;20487;-49
2023/02/18 11:02:35;;;;;;;;;;;;;;;17.96;26.45;93934.94;5006560;28;19931;-47
2023/02/18 11:05:00;;;;;;;;;;;;;;;17.66;25.45;93935.47;5019392;28;19921;-47
2023/02/18 11:07:29;;;;;;;;;;;;;;;17.27;25.89;93929.00;5020813;28;19979;-47
2023/02/18 11:09:55;;;;;;;;;;;;;;;16.64;26.59;93934.53;5019829;28;20448;-48
2023/02/18 11:12:23;;;;;;;;;;;;;;;17.72;27.14;93929.59;5022625;28;20014;-46
2023/02/18 11:14:50;;;;;;;;;;;;;;;17.63;26.30;93928.25;5018958;28;20468;-48
2023/02/18 11:17:17;;;;;;;;;;;;;;;16.98;28.03;93933.69;5020801;28;19956;-48
2023/02/18 11:19:42;;;;;;;;;;;;;;;16.99;26.69;93926.81;5020072;28;19925;-49
2023/02/18 11:22:12;;;;;;;;;;;;;;;17.17;26.59;93922.63;5019582;28;19921;-47
2023/02/18 11:24:38;;;;;;;;;;;;;;;16.62;27.95;93917.66;5020536;28;19921;-47
2023/02/18 11:27:07;;;;;;;;;;;;;;;16.53;28.77;93906.44;5020451;28;21435;-47
2023/02/18 11:29:33;;;;;;;;;;;;;;;17.23;26.01;93902.84;5021598;28;19999;-47
2023/02/18 11:31:58;;;;;;;;;;;;;;;16.30;28.23;93901.13;5018988;28;20008;-47
2023/02/18 11:34:27;;;;;;;;;;;;;;;15.58;28.73;93882.03;5017885;28;19935;-47
2023/02/18 11:36:53;;;;;;;;;;;;;;;17.03;27.79;93885.28;5015317;28;19921;-48
2023/02/18 11:39:27;;;;;;;;;;;;;;;17.98;26.14;93875.69;5016998;28;19928;-48
2023/02/18 11:41:54;;;;;;;;;;;;;;;18.49;25.65;93878.06;5018541;28;19964;-47
2023/02/18 11:44:20;;;;;;;;;;;;;;;18.68;25.06;93877.28;5022897;28;19925;-47
2023/02/18 11:47:15;;;;;;;;;;;;;;;19.03;24.93;93869.25;5020967;28;19925;-47
2023/02/18 11:49:41;;;;;;;;;;;;;;;18.65;25.31;93881.25;5008388;28;20604;-46
2023/02/18 11:52:15;;;;;;;;;;;;;;;17.64;26.73;93862.72;5022632;28;20381;-49
2023/02/18 11:54:40;;;;;;;;;;;;;;;17.21;28.44;93863.63;5025181;28;19921;-48
2023/02/18 11:57:06;;;;;;;;;;;;;;;16.61;29.54;93857.63;5023155;28;20314;-48
2023/02/18 11:59:34;;;;;;;;;;;;;;;17.71;27.71;93870.25;5023561;28;19986;-48
2023/02/18 12:01:59;;;;;;;;;;;;;;;17.80;27.56;93866.69;5024016;28;19944;-50
2023/02/18 12:04:33;;;;;;;;;;;;;;;18.07;27.24;93867.31;5023346;28;20436;-51
2023/02/18 12:07:14;;;;;;;;;;;;;;;18.79;26.45;93851.50;5023852;28;19921;-50
2023/02/18 12:09:41;;;;;;;;;;;;;;;19.03;25.66;93867.19;5021157;28;20650;-48
2023/02/18 12:12:26;;;;;;;;;;;;;;;18.88;26.96;93839.56;5023155;28;19917;-48
2023/02/18 12:14:59;;;;;;;;;;;;;;;18.65;27.62;93839.31;4982427;28;19952;-46
2023/02/18 12:17:40;;;;;;;;;;;;;;;18.80;26.46;93836.16;5025099;28;20016;-48
2023/02/18 12:20:05;;;;;;;;;;;;;;;18.30;26.82;93827.00;5024353;28;20027;-50
2023/02/18 12:22:55;;;;;;;;;;;;;;;18.62;27.18;93826.53;5024325;28;20008;-47
2023/02/18 12:25:22;;;;;;;;;;;;;;;19.33;26.98;93804.88;4989381;28;19937;-51
2023/02/18 12:27:54;;;;;;;;;;;;;;;19.02;25.88;93826.53;5024593;28;19924;-49
2023/02/18 12:30:38;;;;;;;;;;;;;;;18.77;25.78;93809.41;5021963;28;19931;-48
2023/02/18 12:33:22;;;;;;;;;;;;;;;18.66;26.25;93815.63;5023942;28;20393;-48
2023/02/18 12:35:53;;;;;;;;;;;;;;;19.29;25.29;93810.22;5023161;28;19953;-47
2023/02/18 12:38:40;;;;;;;;;;;;;;;18.79;25.21;93817.94;5022256;28;19921;-48
2023/02/18 12:41:05;;;;;;;;;;;;;;;18.03;25.95;93793.63;5023184;28;19979;-49
2023/02/18 12:43:34;;;;;;;;;;;;;;;17.67;27.65;93828.03;5023376;28;19921;-49
2023/02/18 12:46:15;;;;;;;;;;;;;;;17.17;27.04;93821.47;5021736;28;20408;-49
2023/02/18 12:49:00;;;;;;;;;;;;;;;17.00;26.53;93815.97;5019939;28;19921;-45
2023/02/18 12:51:55;;;;;;;;;;;;;;;16.92;27.65;93820.91;5021654;28;19924;-47
2023/02/18 12:54:23;;;;;;;;;;;;;;;17.12;26.61;93814.84;5006632;28;19944;-47